Time;durP1;ratioP1;P1;durP2;ratioP2;P2;SDS_P1;SDS_P2;PMS_P1;PMS_P2;Temp;Humidity;BMP_temperature;BMP_pressure;BME280_temperature;BME280_humidity;BME280_pressure;Samples;Min_cycle;Max_cycle;Signal;HPM_P1;HPM_P2
2023/04/08 00:00:49;;;;;;;3.27;2.97;;;;;;;9.37;100.00;100646.28;5031293;28;20482;-51
2023/04/08 00:03:16;;;;;;;5.13;3.83;;;;;;;9.27;100.00;100652.63;5031403;28;20487;-51
2023/04/08 00:05:42;;;;;;;2.87;2.67;;;;;;;9.34;100.00;100645.47;5031542;28;20451;-51
2023/04/08 00:08:09;;;;;;;8.33;4.83;;;;;;;9.26;100.00;100653.53;5031506;28;20482;-51
2023/04/08 00:10:35;;;;;;;10.20;4.67;;;;;;;9.33;100.00;100654.34;5030026;28;20467;-51
2023/04/08 00:13:02;;;;;;;5.93;4.40;;;;;;;9.30;100.00;100652.56;5031411;28;20447;-51
2023/04/08 00:15:28;;;;;;;11.10;5.23;;;;;;;9.30;100.00;100654.34;5030266;28;20452;-51
2023/04/08 00:17:55;;;;;;;2.73;2.63;;;;;;;9.31;100.00;100643.72;5031201;28;20447;-51
2023/04/08 00:20:23;;;;;;;3.80;3.50;;;;;;;9.22;100.00;100657.16;5031431;28;20839;-51
2023/04/08 00:22:49;;;;;;;7.30;3.70;;;;;;;9.30;100.00;100654.34;5031197;28;20514;-51
2023/04/08 00:25:16;;;;;;;5.33;4.83;;;;;;;9.34;100.00;100656.06;5031351;28;20451;-51
2023/04/08 00:27:42;;;;;;;3.60;3.30;;;;;;;9.30;100.00;100670.28;5031194;28;20455;-51
2023/04/08 00:30:10;;;;;;;5.43;4.50;;;;;;;9.19;100.00;100666.06;5029375;28;20484;-51
2023/04/08 00:32:37;;;;;;;5.03;4.63;;;;;;;9.21;100.00;100660.72;5031126;28;20818;-51
2023/04/08 00:35:04;;;;;;;6.07;4.87;;;;;;;9.14;100.00;100659.94;5030606;28;20463;-51
2023/04/08 00:37:30;;;;;;;2.80;2.60;;;;;;;9.15;100.00;100656.38;5019853;28;20455;-51
2023/04/08 00:39:57;;;;;;;4.33;3.17;;;;;;;9.24;100.00;100660.66;5030969;28;20459;-51
2023/04/08 00:42:23;;;;;;;5.13;4.70;;;;;;;9.24;100.00;100657.13;5030701;28;21062;-51
2023/04/08 00:44:50;;;;;;;7.27;4.00;;;;;;;9.34;100.00;100651.66;5031129;28;20479;-51
2023/04/08 00:47:17;;;;;;;4.30;3.83;;;;;;;9.29;100.00;100658.78;5030926;28;20452;-51
2023/04/08 00:49:44;;;;;;;8.03;4.60;;;;;;;9.23;100.00;100655.38;5029434;28;20590;-50
2023/04/08 00:52:10;;;;;;;3.07;2.77;;;;;;;9.28;100.00;100658.81;5028408;28;21000;-51
2023/04/08 00:54:37;;;;;;;7.37;4.60;;;;;;;9.33;100.00;100659.63;5030657;28;20542;-51
2023/04/08 00:57:05;;;;;;;8.37;4.80;;;;;;;9.34;100.00;100651.66;5029889;28;20455;-51
2023/04/08 00:59:32;;;;;;;14.47;5.00;;;;;;;9.37;100.00;100656.88;5030225;28;20451;-51
2023/04/08 01:02:29;;;;;;;8.10;4.80;;;;;;;9.38;100.00;100657.75;5030200;28;20515;-51
2023/04/08 01:05:05;;;;;;;3.90;2.90;;;;;;;9.29;100.00;100660.56;5018484;28;20455;-51
2023/04/08 01:07:46;;;;;;;6.37;4.47;;;;;;;9.17;100.00;100670.47;5030295;28;20886;-51
2023/04/08 01:10:15;;;;;;;8.93;3.90;;;;;;;9.16;100.00;100660.78;5030536;28;20467;-51
2023/04/08 01:12:52;;;;;;;5.33;3.60;;;;;;;9.23;100.00;100653.59;5029358;28;20451;-51
2023/04/08 01:15:20;;;;;;;4.30;3.33;;;;;;;9.21;100.00;100655.41;5030407;28;20457;-51
2023/04/08 01:17:51;;;;;;;5.60;4.97;;;;;;;9.38;100.00;100653.34;5030159;28;20460;-51
2023/04/08 01:20:18;;;;;;;4.90;3.87;;;;;;;9.39;100.00;100662.16;5029094;28;21035;-51
2023/04/08 01:23:07;;;;;;;9.00;3.73;;;;;;;9.41;100.00;100657.69;5029853;28;20491;-51
2023/04/08 01:25:37;;;;;;;3.37;3.07;;;;;;;9.34;100.00;100656.06;5029929;28;20949;-51
2023/04/08 01:28:10;;;;;;;3.30;2.97;;;;;;;9.36;100.00;100654.25;5030005;28;20949;-51
2023/04/08 01:30:41;;;;;;;2.60;1.50;;;;;;;9.36;100.00;100654.25;5029603;28;20565;-51
2023/04/08 01:33:11;;;;;;;5.37;3.73;;;;;;;9.35;100.00;100655.16;5029210;28;20451;-51
2023/04/08 01:35:38;;;;;;;3.93;3.43;;;;;;;9.44;100.00;100654.97;5020965;28;20490;-51
2023/04/08 01:38:07;;;;;;;4.07;3.87;;;;;;;9.34;100.00;100654.28;5029570;28;20896;-51
2023/04/08 01:40:36;;;;;;;9.50;3.43;;;;;;;9.35;100.00;100657.81;5029928;28;20482;-51
2023/04/08 01:43:06;;;;;;;3.47;3.30;;;;;;;9.24;100.00;100657.13;5029488;28;21307;-51
2023/04/08 01:45:32;;;;;;;3.97;3.40;;;;;;;9.24;100.00;100650.03;5029885;28;20487;-51
2023/04/08 01:48:00;;;;;;;6.47;5.00;;;;;;;9.24;100.00;100643.88;5029350;28;20479;-51
2023/04/08 01:50:28;;;;;;;2.47;2.20;;;;;;;9.26;100.00;100644.72;5029619;28;20475;-51
2023/04/08 01:52:57;;;;;;;3.27;2.97;;;;;;;9.27;100.00;100655.28;5029430;28;20452;-51
2023/04/08 01:55:25;;;;;;;3.37;2.27;;;;;;;9.25;100.00;100643.84;5029533;28;20456;-51
2023/04/08 01:57:55;;;;;;;2.97;2.77;;;;;;;9.32;100.00;100649.91;5029289;28;20458;-51
2023/04/08 02:00:26;;;;;;;3.90;2.40;;;;;;;9.26;100.00;100640.28;5029599;28;20475;-51
2023/04/08 02:02:54;;;;;;;6.93;3.60;;;;;;;9.49;100.00;100643.41;5026052;28;20488;-52
2023/04/08 02:05:21;;;;;;;4.73;3.93;;;;;;;9.55;100.00;100649.50;5020457;28;20460;-51
2023/04/08 02:07:48;;;;;;;9.40;3.40;;;;;;;9.49;100.00;100655.78;5027420;28;20557;-51
2023/04/08 02:10:15;;;;;;;4.40;3.07;;;;;;;9.45;100.00;100651.44;5019496;28;20537;-51
2023/04/08 02:12:43;;;;;;;5.13;4.00;;;;;;;9.40;100.00;100655.94;5028977;28;20944;-51
2023/04/08 02:15:11;;;;;;;3.80;3.57;;;;;;;9.39;100.00;100654.22;5029395;28;20459;-51
2023/04/08 02:17:55;;;;;;;4.90;3.70;;;;;;;9.54;100.00;100655.69;5029027;28;20547;-51
2023/04/08 02:20:38;;;;;;;11.33;3.60;;;;;;;9.31;100.00;100651.69;5029133;28;20471;-51
2023/04/08 02:23:23;;;;;;;7.60;2.80;;;;;;;9.36;100.00;100656.91;5028830;28;20491;-51
2023/04/08 02:25:54;;;;;;;5.40;2.13;;;;;;;9.29;100.00;100661.44;5029188;28;20494;-51
2023/04/08 02:28:21;;;;;;;5.23;4.00;;;;;;;9.27;100.00;100651.75;5028973;28;20466;-51
2023/04/08 02:30:50;;;;;;;5.13;4.27;;;;;;;9.26;100.00;100664.16;5028620;28;20510;-51
2023/04/08 02:33:19;;;;;;;1.97;1.87;;;;;;;9.27;100.00;100660.59;5028667;28;20448;-51
2023/04/08 02:35:48;;;;;;;3.60;3.40;;;;;;;9.22;100.00;100670.41;5025052;28;20460;-51
2023/04/08 02:38:15;;;;;;;3.83;3.53;;;;;;;9.31;100.00;100664.06;5028835;28;20867;-51
2023/04/08 02:40:41;;;;;;;3.30;3.00;;;;;;;9.23;100.00;100660.69;5029184;28;20529;-51
2023/04/08 02:43:07;;;;;;;4.20;4.00;;;;;;;9.24;100.00;100665.97;5029213;28;20496;-51
2023/04/08 02:45:39;;;;;;;3.50;3.30;;;;;;;9.44;100.00;100663.81;5027367;28;20455;-51
2023/04/08 02:48:06;;;;;;;3.37;3.00;;;;;;;9.34;100.00;100656.94;5025023;28;20451;-51
2023/04/08 02:50:32;;;;;;;5.67;3.33;;;;;;;9.28;100.00;100666.78;5029245;28;20471;-51
2023/04/08 02:52:59;;;;;;;6.27;2.67;;;;;;;9.27;100.00;100659.72;5024188;28;21054;-50
2023/04/08 02:55:25;;;;;;;3.80;3.13;;;;;;;9.22;100.00;100661.59;5018175;28;20509;-51
2023/04/08 02:57:52;;;;;;;4.43;4.00;;;;;;;9.31;100.00;100662.28;5028769;28;20447;-51
2023/04/08 03:00:18;;;;;;;6.10;3.30;;;;;;;9.20;100.00;100667.81;5028598;28;20992;-51
2023/04/08 03:02:45;;;;;;;4.23;3.10;;;;;;;9.14;100.00;100665.22;5028789;28;20495;-51
2023/04/08 03:05:11;;;;;;;4.37;3.90;;;;;;;9.20;100.00;100670.44;5028862;28;20451;-51
2023/04/08 03:07:38;;;;;;;8.57;3.40;;;;;;;9.13;100.00;100668.78;5028319;28;20451;-51
2023/04/08 03:10:05;;;;;;;7.57;4.17;;;;;;;9.19;100.00;100673.13;5016571;28;20480;-51
2023/04/08 03:12:32;;;;;;;4.60;4.10;;;;;;;9.15;100.00;100666.97;5025948;28;20933;-51
2023/04/08 03:14:59;;;;;;;5.13;4.17;;;;;;;9.00;100.00;100669.88;5028115;28;20455;-51
2023/04/08 03:17:26;;;;;;;3.60;3.33;;;;;;;9.17;100.00;100673.13;5028664;28;20931;-51
2023/04/08 03:19:52;;;;;;;3.30;2.97;;;;;;;9.15;100.00;100669.63;5028783;28;20566;-51
2023/04/08 03:22:19;;;;;;;5.70;3.33;;;;;;;8.99;100.00;100670.78;5030844;28;20456;-51
2023/04/08 03:24:45;;;;;;;6.13;3.60;;;;;;;9.14;100.00;100672.31;5035566;28;20457;-51
2023/04/08 03:27:13;;;;;;;5.90;3.30;;;;;;;9.15;100.00;100674.06;5035831;28;20820;-51
2023/04/08 03:29:39;;;;;;;4.17;3.83;;;;;;;9.06;100.00;100672.47;5035663;28;20789;-51
2023/04/08 03:32:06;;;;;;;4.07;3.17;;;;;;;9.14;100.00;100672.31;5035419;28;20464;-51
2023/04/08 03:34:34;;;;;;;3.17;2.87;;;;;;;9.13;100.00;100666.13;5033661;28;20443;-51
2023/04/08 03:37:01;;;;;;;5.80;4.23;;;;;;;8.99;100.00;100676.09;5030078;28;20480;-50
2023/04/08 03:39:27;;;;;;;3.60;3.40;;;;;;;9.16;100.00;100676.69;5026832;28;20459;-50
2023/04/08 03:41:54;;;;;;;4.50;4.20;;;;;;;9.21;100.00;100681.94;5034922;28;20467;-51
2023/04/08 03:44:20;;;;;;;8.23;2.90;;;;;;;9.17;100.00;100681.09;5035063;28;20487;-51
2023/04/08 03:46:46;;;;;;;3.97;3.00;;;;;;;9.15;100.00;100682.03;5034561;28;20459;-51
2023/04/08 03:49:13;;;;;;;13.23;5.27;;;;;;;9.10;100.00;100684.75;5035097;28;20961;-51
2023/04/08 03:51:39;;;;;;;2.63;2.00;;;;;;;9.13;100.00;100683.81;5034982;28;20489;-51
2023/04/08 03:54:06;;;;;;;5.70;2.50;;;;;;;9.00;100.00;100680.50;5034962;28;20443;-51
2023/04/08 03:56:34;;;;;;;7.33;4.70;;;;;;;8.90;100.00;100685.06;5034902;28;20451;-51
2023/04/08 03:59:00;;;;;;;7.27;3.90;;;;;;;8.95;100.00;100678.81;5033818;28;20458;-51
2023/04/08 04:01:27;;;;;;;5.10;4.37;;;;;;;8.98;100.00;100679.66;5031302;28;20834;-51
2023/04/08 04:03:54;;;;;;;5.80;4.07;;;;;;;9.01;100.00;100676.06;5034826;28;20497;-51
2023/04/08 04:06:20;;;;;;;6.40;5.03;;;;;;;9.06;100.00;100679.53;5034899;28;20447;-51
2023/04/08 04:08:48;;;;;;;9.37;3.97;;;;;;;8.87;100.00;100687.75;5034657;28;20448;-51
2023/04/08 04:11:15;;;;;;;7.87;5.93;;;;;;;9.17;100.00;100686.38;5034449;28;20472;-51
2023/04/08 04:13:41;;;;;;;3.87;3.47;;;;;;;9.03;100.00;100679.56;5034494;28;20451;-51
2023/04/08 04:16:08;;;;;;;14.97;4.67;;;;;;;8.77;100.00;100683.53;5034638;28;20459;-51
2023/04/08 04:18:34;;;;;;;14.23;4.10;;;;;;;8.78;100.00;100684.41;5034682;28;20531;-51
2023/04/08 04:21:05;;;;;;;5.93;5.33;;;;;;;8.66;100.00;100687.22;5034374;28;20471;-51
2023/04/08 04:23:31;;;;;;;3.53;2.90;;;;;;;8.47;100.00;100697.19;5034261;28;20491;-51
2023/04/08 04:25:58;;;;;;;10.03;4.50;;;;;;;8.42;100.00;100697.25;5021366;28;20968;-50
2023/04/08 04:28:24;;;;;;;4.37;2.90;;;;;;;8.32;100.00;100699.09;5034323;28;20447;-51
2023/04/08 04:30:51;;;;;;;8.20;4.87;;;;;;;8.46;100.00;100691.00;5022041;28;20494;-51
2023/04/08 04:33:19;;;;;;;8.20;4.70;;;;;;;8.42;100.00;100699.03;5033773;28;20502;-51
2023/04/08 04:35:45;;;;;;;4.17;3.67;;;;;;;8.45;100.00;100704.28;5034254;28;20463;-51
2023/04/08 04:38:12;;;;;;;5.10;4.57;;;;;;;8.46;100.00;100706.91;5033817;28;20539;-51
2023/04/08 04:40:38;;;;;;;4.60;4.30;;;;;;;8.35;100.00;100702.63;5034255;28;20473;-51
2023/04/08 04:43:05;;;;;;;8.93;4.40;;;;;;;8.44;100.00;100700.75;5033019;28;20488;-51
2023/04/08 04:45:31;;;;;;;6.90;5.80;;;;;;;8.39;100.00;100699.94;5033996;28;20855;-51
2023/04/08 04:47:58;;;;;;;5.30;4.40;;;;;;;8.36;100.00;100705.28;5033813;28;20460;-51
2023/04/08 04:50:24;;;;;;;7.50;4.80;;;;;;;8.22;100.00;100709.81;5033344;28;20480;-51
2023/04/08 04:52:51;;;;;;;3.23;1.50;;;;;;;8.17;100.00;100714.31;5033499;28;20933;-51
2023/04/08 04:55:17;;;;;;;9.07;4.40;;;;;;;8.30;100.00;100713.25;5033999;28;20462;-51
2023/04/08 04:57:43;;;;;;;5.37;4.00;;;;;;;8.09;100.00;100714.41;5033771;28;20452;-52
2023/04/08 05:00:11;;;;;;;9.83;5.40;;;;;;;8.11;100.00;100719.69;5033607;28;20495;-51
2023/04/08 05:02:37;;;;;;;4.47;4.10;;;;;;;7.93;100.00;100712.81;5033527;28;20451;-50
2023/04/08 05:05:04;;;;;;;5.60;4.60;;;;;;;8.06;100.00;100722.38;5027962;28;20460;-51
2023/04/08 05:07:35;;;;;;;5.67;5.17;;;;;;;8.11;100.00;100724.97;5033603;28;20455;-52
2023/04/08 05:10:02;;;;;;;3.37;3.07;;;;;;;8.14;100.00;100727.59;5032917;28;20486;-52
2023/04/08 05:12:29;;;;;;;4.30;3.87;;;;;;;8.08;100.00;100725.88;5033419;28;20534;-51
2023/04/08 05:14:59;;;;;;;4.33;4.00;;;;;;;8.18;100.00;100721.34;5033366;28;20452;-51
2023/04/08 05:17:26;;;;;;;3.37;2.87;;;;;;;8.41;100.00;100727.28;5030695;28;20448;-51
2023/04/08 05:19:52;;;;;;;6.87;5.87;;;;;;;8.47;100.00;100734.25;5027320;28;20539;-51
2023/04/08 05:22:19;;;;;;;14.07;5.77;;;;;;;8.53;100.00;100739.50;5033175;28;20452;-51
2023/04/08 05:24:45;;;;;;;5.87;5.17;;;;;;;8.88;100.00;100737.22;5033124;28;20491;-51
2023/04/08 05:27:11;;;;;;;7.93;5.30;;;;;;;9.09;100.00;100741.34;5033042;28;20458;-51
2023/04/08 05:29:38;;;;;;;12.00;4.17;;;;;;;9.10;100.00;100744.88;5031577;28;20551;-51
2023/04/08 05:32:05;;;;;;;11.77;5.10;;;;;;;9.02;100.00;100744.97;5030625;28;20882;-49
2023/04/08 05:34:31;;;;;;;4.90;3.87;;;;;;;9.11;100.00;100743.97;5032360;28;20452;-48
2023/04/08 05:36:57;;;;;;;7.27;4.73;;;;;;;9.18;99.73;100748.25;5033046;28;20458;-49
2023/04/08 05:39:24;;;;;;;13.50;5.97;;;;;;;9.32;100.00;100753.34;5033087;28;20447;-49
2023/04/08 05:41:51;;;;;;;17.77;4.90;;;;;;;9.38;99.44;100751.50;5032652;28;21007;-49
2023/04/08 05:44:17;;;;;;;5.90;5.20;;;;;;;9.63;99.01;100749.31;5031486;28;20480;-49
2023/04/08 05:46:44;;;;;;;6.77;6.23;;;;;;;9.70;97.64;100756.25;5032361;28;20929;-49
2023/04/08 05:49:11;;;;;;;4.77;3.83;;;;;;;9.88;97.03;100751.53;5029191;28;20477;-49
2023/04/08 05:51:38;;;;;;;8.80;5.43;;;;;;;9.79;96.92;100757.88;5032743;28;20471;-49
2023/04/08 05:54:05;;;;;;;6.77;6.17;;;;;;;9.94;96.38;100765.56;5032484;28;20868;-49
2023/04/08 05:56:31;;;;;;;5.40;5.10;;;;;;;9.89;96.08;100762.13;5032151;28;20451;-50
2023/04/08 05:58:58;;;;;;;6.40;5.37;;;;;;;9.64;97.29;100766.13;5032696;28;20903;-49
2023/04/08 06:01:24;;;;;;;10.40;5.57;;;;;;;9.50;97.52;100769.00;5031526;28;20467;-50
2023/04/08 06:03:57;;;;;;;6.00;4.03;;;;;;;9.63;97.34;100769.66;5031884;28;20503;-49
2023/04/08 06:06:24;;;;;;;6.07;4.87;;;;;;;9.80;98.09;100771.13;5026575;28;20610;-49
2023/04/08 06:08:51;;;;;;;10.63;6.40;;;;;;;9.59;98.17;100779.44;5032330;28;20976;-50
2023/04/08 06:11:18;;;;;;;6.60;6.10;;;;;;;9.47;98.43;100775.25;5032305;28;20475;-49
2023/04/08 06:13:44;;;;;;;8.47;4.57;;;;;;;9.61;98.46;100776.78;5032528;28;20509;-49
2023/04/08 06:16:16;;;;;;;10.03;4.77;;;;;;;9.40;98.28;100781.53;5032172;28;20539;-49
2023/04/08 06:18:46;;;;;;;5.80;5.00;;;;;;;9.70;97.38;100776.59;5027939;28;20535;-49
2023/04/08 06:21:13;;;;;;;6.63;5.90;;;;;;;9.54;98.12;100777.78;5024202;28;20483;-49
2023/04/08 06:23:39;;;;;;;5.40;4.57;;;;;;;9.62;98.78;100778.53;5031812;28;20992;-49
2023/04/08 06:26:06;;;;;;;6.80;6.30;;;;;;;9.51;99.00;100784.00;5032167;28;20456;-49
2023/04/08 06:28:32;;;;;;;10.90;5.37;;;;;;;9.67;98.67;100780.19;5027320;28;20452;-49
2023/04/08 06:30:59;;;;;;;6.90;4.63;;;;;;;9.67;98.60;100793.47;5025597;28;21016;-49
2023/04/08 06:33:25;;;;;;;6.90;5.03;;;;;;;10.02;98.15;100784.03;5028851;28;20448;-49
2023/04/08 06:36:01;;;;;;;7.83;6.80;;;;;;;10.06;97.13;100785.72;5030897;28;20471;-49
2023/04/08 06:38:28;;;;;;;6.97;6.27;;;;;;;9.99;97.25;100784.06;5031606;28;20452;-49
2023/04/08 06:40:55;;;;;;;23.50;7.00;;;;;;;10.07;97.18;100787.47;5022998;28;20483;-49
2023/04/08 06:43:21;;;;;;;20.23;7.63;;;;;;;10.11;97.23;100794.47;5024353;28;21054;-49
2023/04/08 06:45:48;;;;;;;6.40;5.27;;;;;;;9.99;96.59;100794.69;5023160;28;20459;-49
2023/04/08 06:48:15;;;;;;;4.80;4.50;;;;;;;9.79;97.65;100792.38;5027734;28;20482;-51
2023/04/08 06:50:42;;;;;;;7.17;4.70;;;;;;;9.89;97.03;100796.66;5027849;28;21027;-49
2023/04/08 06:53:09;;;;;;;8.73;5.50;;;;;;;10.00;97.32;100797.31;5031658;28;20995;-50
2023/04/08 06:55:36;;;;;;;6.60;6.00;;;;;;;10.18;96.80;100793.44;5023078;28;20460;-50
2023/04/08 06:58:02;;;;;;;8.03;5.90;;;;;;;10.27;97.39;100798.59;5032618;28;20456;-50
2023/04/08 07:00:29;;;;;;;6.33;5.73;;;;;;;10.13;97.37;100805.94;5027438;28;20822;-50
2023/04/08 07:02:55;;;;;;;7.80;6.20;;;;;;;10.07;97.37;100804.28;5031795;28;20454;-49
2023/04/08 07:05:22;;;;;;;13.10;5.60;;;;;;;9.67;98.06;100814.72;5034064;28;20582;-50
2023/04/08 07:07:48;;;;;;;6.67;5.07;;;;;;;9.91;98.23;100816.06;5035141;28;20466;-50
2023/04/08 07:10:15;;;;;;;6.33;5.50;;;;;;;9.96;97.54;100819.50;5035283;28;20475;-50
2023/04/08 07:12:41;;;;;;;9.43;5.77;;;;;;;9.74;97.77;100810.19;5031441;28;20460;-49
2023/04/08 07:15:08;;;;;;;4.93;4.60;;;;;;;9.94;97.70;100816.00;5032444;28;20497;-50
2023/04/08 07:17:35;;;;;;;11.40;5.30;;;;;;;9.90;97.25;100814.31;5034553;28;20448;-50
2023/04/08 07:20:02;;;;;;;6.17;4.67;;;;;;;10.19;97.54;100813.81;5027996;28;20472;-51
2023/04/08 07:22:29;;;;;;;8.57;4.70;;;;;;;10.09;97.20;100813.09;5029771;28;20458;-50
2023/04/08 07:24:55;;;;;;;9.13;6.27;;;;;;;10.24;97.43;100811.97;5035283;28;20487;-50
2023/04/08 07:27:21;;;;;;;5.57;5.17;;;;;;;10.12;96.03;100820.13;5033343;28;20505;-50
2023/04/08 07:29:53;;;;;;;5.67;4.80;;;;;;;10.33;96.29;100816.22;5027614;28;20818;-50
2023/04/08 07:32:19;;;;;;;8.03;6.27;;;;;;;10.18;95.99;100825.34;5043760;28;20447;-50
2023/04/08 07:34:46;;;;;;;6.77;6.07;;;;;;;10.39;95.02;100819.63;5031728;28;20448;-50
2023/04/08 07:37:12;;;;;;;6.27;5.40;;;;;;;10.51;94.21;100825.63;5034824;28;20451;-50
2023/04/08 07:39:38;;;;;;;10.30;6.20;;;;;;;10.67;94.20;100819.09;5034890;28;20937;-50
2023/04/08 07:42:05;;;;;;;8.57;5.30;;;;;;;10.81;93.87;100826.78;5031926;28;20455;-50
2023/04/08 07:44:32;;;;;;;6.10;5.70;;;;;;;10.54;92.52;100828.22;5031006;28;20571;-50
2023/04/08 07:46:58;;;;;;;18.23;4.83;;;;;;;10.75;92.99;100824.25;5026935;28;20447;-50
2023/04/08 07:49:24;;;;;;;17.20;8.50;;;;;;;10.62;92.89;100824.50;5029626;28;20449;-50
2023/04/08 07:51:51;;;;;;;15.17;7.23;;;;;;;10.84;91.68;100826.72;5033605;28;20522;-50
2023/04/08 07:54:18;;;;;;;18.40;7.83;;;;;;;10.95;91.04;100830.88;5029930;28;20923;-50
2023/04/08 07:56:44;;;;;;;9.10;6.13;;;;;;;10.90;91.07;100830.13;5024869;28;21041;-50
2023/04/08 07:59:11;;;;;;;6.20;5.73;;;;;;;11.12;90.81;100832.34;5034922;28;20443;-50
2023/04/08 08:01:37;;;;;;;4.77;4.33;;;;;;;11.02;91.40;100839.63;5034866;28;20511;-49
2023/04/08 08:04:04;;;;;;;11.07;7.77;;;;;;;11.11;90.82;100838.56;5034676;28;20487;-50
2023/04/08 08:06:31;;;;;;;10.13;6.40;;;;;;;11.18;90.35;100840.16;5034875;28;20451;-50
2023/04/08 08:08:58;;;;;;;6.63;6.03;;;;;;;11.11;90.25;100846.56;5033837;28;20456;-49
2023/04/08 08:11:26;;;;;;;12.23;7.53;;;;;;;11.11;89.87;100839.44;5034735;28;20471;-49
2023/04/08 08:13:53;;;;;;;5.63;4.23;;;;;;;11.28;89.99;100844.38;5034599;28;20444;-49
2023/04/08 08:16:19;;;;;;;12.10;6.43;;;;;;;11.41;89.18;100851.19;5034528;28;20440;-49
2023/04/08 08:18:46;;;;;;;8.77;6.40;;;;;;;11.57;89.52;100849.03;5032926;28;20451;-51
2023/04/08 08:21:12;;;;;;;7.30;6.60;;;;;;;11.37;89.36;100852.13;5033627;28;20467;-49
2023/04/08 08:23:39;;;;;;;12.70;6.27;;;;;;;11.61;87.83;100856.03;5033856;28;20458;-50
2023/04/08 08:26:10;;;;;;;12.00;8.90;;;;;;;11.67;88.83;100861.22;5034331;28;20563;-51
2023/04/08 08:28:38;;;;;;;11.63;8.00;;;;;;;11.61;89.20;100858.69;5033745;28;20542;-49
2023/04/08 08:31:05;;;;;;;11.17;6.10;;;;;;;11.54;90.07;100863.28;5033932;28;20557;-49
2023/04/08 08:33:32;;;;;;;12.30;6.40;;;;;;;11.50;89.01;100853.59;5033235;28;20460;-49
2023/04/08 08:35:58;;;;;;;5.80;4.73;;;;;;;11.74;88.07;100867.25;5034343;28;20455;-49
2023/04/08 08:38:25;;;;;;;7.33;5.90;;;;;;;11.80;88.87;100867.16;5034848;28;20478;-49
2023/04/08 08:40:57;;;;;;;14.00;6.90;;;;;;;11.65;86.87;100876.38;5028719;28;20471;-50
2023/04/08 08:43:24;;;;;;;6.90;5.97;;;;;;;11.61;87.89;100880.00;5029714;28;20818;-50
2023/04/08 08:45:50;;;;;;;8.37;5.33;;;;;;;11.74;87.91;100877.91;5033153;28;20487;-50
2023/04/08 08:48:17;;;;;;;11.27;6.80;;;;;;;11.83;86.98;100883.06;5033526;28;20452;-49
2023/04/08 08:50:44;;;;;;;8.03;6.17;;;;;;;12.16;86.52;100887.53;5030943;28;20472;-50
2023/04/08 08:53:11;;;;;;;13.23;7.70;;;;;;;12.00;86.81;100875.53;5031687;28;20965;-49
2023/04/08 08:55:38;;;;;;;8.47;5.93;;;;;;;12.31;86.14;100883.59;5033766;28;20869;-50
2023/04/08 08:58:26;;;;;;;16.97;5.17;;;;;;;12.34;85.82;100880.88;5031542;28;20543;-49
2023/04/08 09:00:53;;;;;;;8.17;7.43;;;;;;;12.35;85.64;100882.63;5027688;28;20567;-49
2023/04/08 09:03:24;;;;;;;11.77;6.70;;;;;;;12.21;84.60;100883.91;5045180;28;20459;-49
2023/04/08 09:05:59;;;;;;;14.53;6.97;;;;;;;12.37;83.50;100887.91;5032309;28;21007;-50
2023/04/08 09:08:34;;;;;;;11.57;4.83;;;;;;;12.41;84.31;100885.13;5032451;28;20505;-49
2023/04/08 09:11:11;;;;;;;12.80;6.70;;;;;;;12.05;82.81;100889.59;5031033;28;20489;-49
2023/04/08 09:13:38;;;;;;;6.33;5.57;;;;;;;11.94;85.18;100894.34;5025681;28;20451;-49
2023/04/08 09:16:07;;;;;;;13.27;6.40;;;;;;;12.16;85.46;100884.88;5024196;28;20447;-51
2023/04/08 09:18:36;;;;;;;7.77;5.73;;;;;;;12.25;84.92;100891.78;5028417;28;20825;-49
2023/04/08 09:21:04;;;;;;;9.83;6.40;;;;;;;12.43;82.70;100896.63;5033006;28;20480;-49
2023/04/08 09:23:38;;;;;;;11.80;7.90;;;;;;;12.02;83.91;100897.69;5035913;28;20463;-51
2023/04/08 09:26:13;;;;;;;7.83;7.03;;;;;;;12.27;84.74;100899.72;5025539;28;20505;-49
2023/04/08 09:28:41;;;;;;;6.33;5.73;;;;;;;12.15;84.01;100899.13;5032922;28;20455;-49
2023/04/08 09:31:19;;;;;;;5.00;4.27;;;;;;;12.38;82.76;100901.22;5028921;28;20491;-50
2023/04/08 09:33:47;;;;;;;9.83;5.37;;;;;;;12.35;84.62;100898.63;5031533;28;20456;-49
2023/04/08 09:36:15;;;;;;;10.57;6.60;;;;;;;11.98;83.86;100895.13;5032208;28;20514;-49
2023/04/08 09:38:43;;;;;;;7.00;5.97;;;;;;;11.96;85.34;100897.84;5027199;28;20949;-49
2023/04/08 09:41:13;;;;;;;17.43;7.53;;;;;;;11.84;84.61;100901.66;5028812;28;20554;-48
2023/04/08 09:43:47;;;;;;;6.83;5.27;;;;;;;11.96;84.95;100905.84;5027385;28;20452;-50
2023/04/08 09:46:18;;;;;;;11.00;5.07;;;;;;;11.85;83.83;100908.75;5026498;28;20853;-49
2023/04/08 09:48:49;;;;;;;10.53;6.27;;;;;;;11.70;85.36;100909.06;5024306;28;20455;-49
2023/04/08 09:51:18;;;;;;;7.90;5.50;;;;;;;11.54;84.73;100913.88;5027654;28;20956;-49
2023/04/08 09:53:47;;;;;;;6.30;5.80;;;;;;;11.60;84.34;100911.97;5032430;28;20533;-49
2023/04/08 09:56:16;;;;;;;8.80;5.90;;;;;;;11.56;82.93;100920.03;5024975;28;20821;-49
2023/04/08 09:58:58;;;;;;;6.17;5.30;;;;;;;11.61;84.28;100921.72;5035447;28;20479;-51
2023/04/08 10:01:38;;;;;;;8.67;5.93;;;;;;;11.56;84.99;100914.72;5032042;28;20468;-59
2023/04/08 10:04:11;;;;;;;9.37;5.50;;;;;;;11.81;85.02;100916.84;5031190;28;20481;-49
2023/04/08 10:06:38;;;;;;;18.00;6.03;;;;;;;11.75;84.04;100914.28;5032526;28;20459;-49
2023/04/08 10:09:06;;;;;;;6.03;5.10;;;;;;;11.67;84.85;100918.94;5031431;28;20458;-51
2023/04/08 10:11:35;;;;;;;7.00;5.77;;;;;;;11.50;86.44;100916.63;5028455;28;20514;-49
2023/04/08 10:14:01;;;;;;;5.60;4.10;;;;;;;11.55;86.18;100918.28;5024926;28;20531;-49
2023/04/08 10:16:28;;;;;;;5.00;4.60;;;;;;;11.66;86.65;100920.72;5034870;28;20455;-49
2023/04/08 10:18:56;;;;;;;5.57;5.07;;;;;;;11.57;86.42;100918.25;5023702;28;20824;-48
2023/04/08 10:21:38;;;;;;;5.83;5.13;;;;;;;11.47;85.93;100914.03;5028821;28;20472;-48
2023/04/08 10:24:06;;;;;;;4.67;4.23;;;;;;;11.59;85.68;100916.44;5027095;28;20454;-49
2023/04/08 10:26:44;;;;;;;4.97;4.00;;;;;;;11.89;84.54;100916.66;5031761;28;20877;-49
2023/04/08 10:29:16;;;;;;;5.00;4.60;;;;;;;12.01;83.50;100919.91;5033122;28;20454;-49
2023/04/08 10:31:47;;;;;;;8.00;6.27;;;;;;;12.19;83.40;100921.22;5031620;28;20483;-49
2023/04/08 10:34:18;;;;;;;8.40;4.63;;;;;;;12.23;82.14;100914.06;5033489;28;20447;-49
2023/04/08 10:36:45;;;;;;;6.67;6.00;;;;;;;12.30;82.50;100919.19;5030113;28;21008;-49
2023/04/08 10:39:15;;;;;;;5.87;5.10;;;;;;;12.34;81.20;100920.88;5032268;28;20517;-50
2023/04/08 10:41:42;;;;;;;5.40;4.90;;;;;;;12.29;82.57;100924.56;5031802;28;20475;-50
2023/04/08 10:44:16;;;;;;;13.60;5.60;;;;;;;12.44;79.96;100921.50;5032007;28;20821;-49
2023/04/08 10:46:43;;;;;;;6.33;5.70;;;;;;;12.41;79.78;100925.13;5031932;28;20458;-49
2023/04/08 10:49:10;;;;;;;6.80;3.60;;;;;;;12.51;80.33;100924.88;5032185;28;20941;-49
2023/04/08 10:51:37;;;;;;;8.00;4.17;;;;;;;12.58;79.83;100918.47;5031768;28;20495;-49
2023/04/08 10:54:06;;;;;;;5.03;4.47;;;;;;;12.38;80.15;100919.00;5031563;28;20497;-50
2023/04/08 10:56:44;;;;;;;7.00;4.90;;;;;;;12.38;78.10;100919.00;5032133;28;20451;-49
2023/04/08 10:59:15;;;;;;;6.03;4.07;;;;;;;12.48;77.07;100923.19;5031575;28;20482;-49
2023/04/08 11:01:43;;;;;;;7.83;4.80;;;;;;;12.35;76.18;100919.97;5018763;28;20940;-50
2023/04/08 11:04:12;;;;;;;5.27;4.77;;;;;;;12.33;78.00;100920.88;5031503;28;20471;-50
2023/04/08 11:06:41;;;;;;;5.67;4.57;;;;;;;12.54;78.00;100917.69;5031605;28;20448;-49
2023/04/08 11:09:08;;;;;;;10.10;5.47;;;;;;;12.61;77.83;100919.28;5031437;28;20452;-49
2023/04/08 11:11:35;;;;;;;5.37;4.53;;;;;;;12.48;76.01;100919.63;5031344;28;20472;-49
2023/04/08 11:14:03;;;;;;;5.03;4.43;;;;;;;12.67;76.56;100918.22;5031349;28;20457;-49
2023/04/08 11:16:29;;;;;;;8.73;4.27;;;;;;;12.22;76.80;100915.84;5031285;28;20824;-50
2023/04/08 11:18:57;;;;;;;7.17;5.47;;;;;;;12.55;77.15;100914.09;5031357;28;20451;-49
2023/04/08 11:21:24;;;;;;;4.00;3.57;;;;;;;12.42;77.01;100913.53;5031484;28;20464;-49
2023/04/08 11:23:51;;;;;;;5.00;4.60;;;;;;;12.58;73.91;100922.00;5031222;28;20459;-49
2023/04/08 11:26:19;;;;;;;7.80;4.43;;;;;;;12.63;74.45;100913.91;5031297;28;20491;-49
2023/04/08 11:28:49;;;;;;;7.23;3.57;;;;;;;12.80;74.88;100913.44;5030451;28;20451;-49